METAR Data
IDs: Format: Raw Decoded Include TAF

Data at: 1341 UTC 20 Jul 2019

METAR for:KSPW (Spencer Muni, IA, US)
Text:KSPW 201312Z AUTO 04014G22KT 10SM FEW009 SCT019 SCT100 24/22 A2980 RMK AO2 T02440217
Temperature: 24.4°C ( 76°F)
Dewpoint: 21.7°C ( 71°F) [RH = 85%]
Pressure (altimeter):29.80 inches Hg (1009.2 mb)
Winds:from the NE (40 degrees) at 16 MPH (14 knots; 7.2 m/s) gusting to 25 MPH (22 knots; 11.3 m/s)
Visibility:10 or more sm (16+ km)
Ceiling:at least 12,000 feet AGL
Clouds: few clouds at 900 feet AGL, scattered clouds at 1900 feet AGL, scattered clouds at 10000 feet AGL
QC Flag:automated observation with no human augmentation